Canovanas, PR (00729)

4:16 AM AST on June 26, 2017 (GMT -0400)
Manejo de Emergencias Canovanas | | Change Station

Elev 56 ft 18.38 °N, 65.90 °W | Updated 14 minutes ago

Rain
Rain
76.1 °F
Feels Like 75 °F
N
0.0
Wind Variable Wind from East
Gusts 5.0 mph

Today
High -- | Low -- °F
--% Chance of Precip.
Yesterday
High -- | Low -- °F
Precip. -- in
Pressure 30.04 in
Visibility 7.0 miles
Clouds Few 1500 ft
Scattered Clouds 4200 ft
Overcast 8000 ft
Heat Index 75 °F
Dew Point 13 °F
Humidity 9%
Rainfall Not available.
Snow Depth Not available.
5:49 AM 7:03 PM
Waxing Crescent, 7% visible
METAR TJSJ 260756Z 20003KT 7SM -RA FEW015 SCT042 OVC080 25/23 A3004 RMK AO2 RAB35 SLP170 P0002 T02500233
Pressure 30.04 in
Visibility 7.0 miles
Clouds Few 1500 ft
Scattered Clouds 4200 ft
Overcast 8000 ft
Heat Index 75 °F
Dew Point 13 °F
Humidity 9%
Rainfall Not available.
Snow Depth Not available.
5:49 AM 7:03 PM
Waxing Crescent, 7% visible
METAR TJSJ 260756Z 20003KT 7SM -RA FEW015 SCT042 OVC080 25/23 A3004 RMK AO2 RAB35 SLP170 P0002 T02500233

Get Severe Weather Alerts

Thanks for signing up!

Be on the lookout for a verification email in your inbox.

You'll start receiving the daily forecast at 6 AM.

×

10-Day Weather Forecast

Almanac

Astronomy

Jun. 26, 2017 Rise Set
Actual Time
Civil Twilight
Nautical Twilight
Astronomical Twilight
Moon
Length of Visible Light
Length of Day
Tomorrow will be .
, % of the Moon is Illuminated

Today's Extremes

State Highs State Lows

Community

WunderPhotos

Category 6

Welcome to Category 6. This is the collective home for Weather Underground's featured writeups by Dr. Jeff Masters (right), Bob Henson (left), Chris Burt, and other regular contributors.

Nearby

Air Quality

  Air Quality AQ Index Pollutant
Not available.

Snow Depth

Station Depth Elevation

Earthquake Activity

City Distance Mag. Time & Date
Minimum magnitude displayed is 2.5.

Coastal Water Temperatures

Place Temperature

Stations

Nearby Weather Stations

Station Location Temp. Windchill Dew Point Humidity Wind Precip. Elev Updated Type
                   

Watches & Warnings

There are currently no watches in effect.